createdAt,value
2022-12-03T00:00:21.996Z,21.63
2022-12-03T00:02:48.844Z,36.13
2022-12-03T00:05:15.674Z,28.10
2022-12-03T00:07:42.391Z,30.40
2022-12-03T00:10:10.323Z,24.77
2022-12-03T00:12:37.117Z,25.10
2022-12-03T00:15:05.912Z,26.02
2022-12-03T00:17:33.606Z,28.75
2022-12-03T00:20:00.445Z,33.65
2022-12-03T00:22:27.123Z,34.70
2022-12-03T00:24:54.130Z,28.58
2022-12-03T00:27:21.014Z,23.10
2022-12-03T00:29:47.810Z,22.98
2022-12-03T00:32:14.579Z,24.23
2022-12-03T00:34:41.356Z,31.73
2022-12-03T00:37:08.132Z,36.72
2022-12-03T00:39:35.648Z,29.95
2022-12-03T00:42:02.365Z,29.70
2022-12-03T00:44:29.151Z,32.20
2022-12-03T00:46:55.983Z,27.90
2022-12-03T00:49:22.894Z,38.83
2022-12-03T00:51:49.713Z,26.05
2022-12-03T00:54:16.546Z,27.17
2022-12-03T00:56:43.325Z,32.63
2022-12-03T00:59:10.172Z,35.60
2022-12-03T01:01:36.941Z,31.40
2022-12-03T01:04:04.183Z,30.83
2022-12-03T01:06:30.915Z,27.38
2022-12-03T01:08:57.684Z,30.73
2022-12-03T01:11:40.730Z,32.97
2022-12-03T01:14:14.288Z,25.08
2022-12-03T01:16:41.880Z,31.38
2022-12-03T01:19:16.022Z,33.13
2022-12-03T01:21:46.822Z,39.22
2022-12-03T01:24:14.127Z,34.75
2022-12-03T01:26:40.925Z,30.75
2022-12-03T01:29:08.035Z,24.92
2022-12-03T01:31:53.423Z,30.83
2022-12-03T01:34:20.336Z,32.05
2022-12-03T01:36:47.161Z,30.02
2022-12-03T01:39:14.006Z,28.30
2022-12-03T01:41:41.735Z,33.05
2022-12-03T01:44:26.939Z,33.95
2022-12-03T01:46:57.158Z,36.60
2022-12-03T01:49:31.416Z,38.97
2022-12-03T01:51:59.973Z,27.50
2022-12-03T01:54:38.234Z,38.85
2022-12-03T01:57:14.515Z,23.85
2022-12-03T01:59:41.279Z,35.80
2022-12-03T02:02:23.177Z,29.25
2022-12-03T02:04:50.757Z,30.20
2022-12-03T02:07:31.247Z,33.17
2022-12-03T02:10:00.966Z,35.28
2022-12-03T02:12:35.760Z,29.08
2022-12-03T02:15:05.377Z,29.83
2022-12-03T02:17:32.676Z,37.00
2022-12-03T02:20:01.760Z,37.65
2022-12-03T02:22:31.175Z,32.30
2022-12-03T02:25:18.209Z,33.60
2022-12-03T02:27:46.130Z,33.22
2022-12-03T02:30:17.745Z,24.83
2022-12-03T02:32:44.778Z,33.20
2022-12-03T02:35:22.050Z,33.78
2022-12-03T02:38:32.247Z,39.90
2022-12-03T02:41:08.561Z,40.38
2022-12-03T02:43:35.932Z,29.15
2022-12-03T02:46:06.927Z,37.17
2022-12-03T02:48:38.275Z,29.52
2022-12-03T02:51:10.025Z,34.25
2022-12-03T02:53:44.447Z,39.33
2022-12-03T02:56:16.285Z,36.75
2022-12-03T02:58:46.986Z,27.98
2022-12-03T03:01:15.601Z,38.92
2022-12-03T03:03:47.209Z,27.75
2022-12-03T03:06:15.949Z,39.58
2022-12-03T03:08:43.788Z,32.13
2022-12-03T03:11:11.614Z,35.88
2022-12-03T03:13:39.219Z,27.73
2022-12-03T03:16:07.797Z,36.33
2022-12-03T03:18:36.023Z,35.38
2022-12-03T03:21:04.534Z,28.90
2022-12-03T03:23:31.699Z,23.63
2022-12-03T03:26:10.018Z,34.00
2022-12-03T03:28:49.149Z,36.15
2022-12-03T03:31:23.016Z,26.88
2022-12-03T03:33:51.592Z,30.60
2022-12-03T03:36:20.305Z,41.80
2022-12-03T03:38:47.900Z,30.42
2022-12-03T03:41:16.083Z,35.17
2022-12-03T03:43:46.185Z,39.80
2022-12-03T03:46:14.929Z,35.90
2022-12-03T03:48:43.656Z,30.23
2022-12-03T03:51:11.951Z,29.38
2022-12-03T03:53:44.351Z,25.15
2022-12-03T03:56:12.092Z,37.03
2022-12-03T03:58:38.965Z,40.22
2022-12-03T04:01:06.113Z,38.00
2022-12-03T04:03:34.190Z,34.65
2022-12-03T04:06:00.907Z,41.83
2022-12-03T04:08:28.184Z,36.90
2022-12-03T04:11:13.539Z,26.30
2022-12-03T04:13:40.353Z,30.30
2022-12-03T04:16:07.843Z,36.22
2022-12-03T04:18:43.830Z,42.03
2022-12-03T04:21:40.854Z,23.70
2022-12-03T04:24:10.713Z,29.73
2022-12-03T04:26:56.011Z,43.10
2022-12-03T04:29:23.647Z,28.30
2022-12-03T04:32:08.961Z,35.60
2022-12-03T04:34:54.424Z,36.58
2022-12-03T04:37:21.678Z,39.90
2022-12-03T04:39:48.750Z,30.08
2022-12-03T04:42:15.577Z,30.40
2022-12-03T04:44:42.446Z,38.67
2022-12-03T04:47:14.120Z,29.85
2022-12-03T04:49:46.703Z,33.45
2022-12-03T04:54:42.792Z,38.88
2022-12-03T04:57:11.094Z,39.33
2022-12-03T04:59:38.665Z,39.50
2022-12-03T05:02:06.695Z,42.55
2022-12-03T05:04:34.113Z,46.88
2022-12-03T05:07:00.939Z,40.33
2022-12-03T05:09:27.769Z,37.00
2022-12-03T05:11:54.585Z,36.10
2022-12-03T05:14:21.387Z,36.88
2022-12-03T05:16:48.230Z,38.88
2022-12-03T05:19:15.019Z,30.08
2022-12-03T05:21:41.762Z,33.67
2022-12-03T05:24:08.611Z,51.40
2022-12-03T05:26:35.400Z,31.02
2022-12-03T05:29:02.179Z,29.77
2022-12-03T05:31:28.917Z,32.28
2022-12-03T05:33:55.804Z,35.10
2022-12-03T05:36:22.631Z,36.28
2022-12-03T05:38:49.403Z,43.95
2022-12-03T05:41:34.608Z,42.13
2022-12-03T05:44:01.410Z,35.85
2022-12-03T05:46:28.215Z,40.97
2022-12-03T05:48:55.249Z,44.58
2022-12-03T05:51:22.171Z,40.90
2022-12-03T05:53:49.074Z,43.33
2022-12-03T05:56:15.790Z,39.25
2022-12-03T05:58:42.496Z,39.75
2022-12-03T06:01:09.215Z,52.10
2022-12-03T06:03:36.089Z,37.80
2022-12-03T06:06:02.925Z,44.03
2022-12-03T06:08:29.708Z,46.55
2022-12-03T06:10:56.427Z,37.92
2022-12-03T06:13:23.119Z,37.97
2022-12-03T06:15:49.905Z,33.40
2022-12-03T06:18:16.688Z,32.63
2022-12-03T06:20:43.457Z,40.65
2022-12-03T06:23:10.197Z,44.85
2022-12-03T06:25:37.068Z,41.88
2022-12-03T06:28:04.021Z,27.95
2022-12-03T06:30:31.009Z,41.33
2022-12-03T06:32:57.804Z,29.23
2022-12-03T06:35:24.613Z,42.80
2022-12-03T06:37:51.337Z,43.80
2022-12-03T06:40:19.737Z,42.05
2022-12-03T06:42:46.507Z,30.25
2022-12-03T06:45:13.505Z,39.45
2022-12-03T06:47:40.461Z,32.70
2022-12-03T06:50:08.887Z,47.67
2022-12-03T06:52:36.549Z,30.67
2022-12-03T06:55:03.676Z,44.95
2022-12-03T06:57:30.493Z,33.63
2022-12-03T06:59:57.346Z,36.70
2022-12-03T07:02:24.395Z,31.80
2022-12-03T07:04:51.262Z,33.42
2022-12-03T07:07:17.953Z,40.78
2022-12-03T07:09:44.789Z,35.42
2022-12-03T07:12:11.519Z,41.22
2022-12-03T07:14:38.269Z,38.22
2022-12-03T07:17:04.948Z,38.47
2022-12-03T07:19:32.974Z,35.20
2022-12-03T07:22:00.673Z,26.17
2022-12-03T07:24:27.759Z,28.13
2022-12-03T07:26:54.565Z,27.80
2022-12-03T07:29:21.675Z,36.35
2022-12-03T07:31:48.721Z,39.13
2022-12-03T07:34:15.637Z,31.50
2022-12-03T07:36:42.472Z,29.13
2022-12-03T07:39:09.410Z,29.13
2022-12-03T07:41:36.199Z,39.95
2022-12-03T07:44:02.977Z,37.60
2022-12-03T07:46:29.949Z,35.60
2022-12-03T07:48:56.827Z,27.58
2022-12-03T07:51:28.851Z,36.35
2022-12-03T07:54:01.344Z,36.33
2022-12-03T07:56:28.110Z,34.90
2022-12-03T07:58:54.856Z,35.00
2022-12-03T08:01:37.100Z,34.20
2022-12-03T08:04:04.035Z,33.60
2022-12-03T08:06:30.818Z,38.08
2022-12-03T08:08:57.545Z,41.42
2022-12-03T08:11:24.421Z,37.75
2022-12-03T08:13:51.187Z,36.05
2022-12-03T08:16:22.140Z,31.35
2022-12-03T08:18:51.299Z,35.35
2022-12-03T08:21:21.057Z,46.85
2022-12-03T08:23:48.396Z,33.65
2022-12-03T08:26:25.411Z,43.97
2022-12-03T08:28:53.393Z,36.42
2022-12-03T08:31:32.412Z,30.65
2022-12-03T08:34:35.789Z,31.13
2022-12-03T08:37:19.879Z,39.92
2022-12-03T08:39:50.273Z,36.30
2022-12-03T08:42:41.839Z,32.55
2022-12-03T08:45:40.141Z,42.08
2022-12-03T08:51:20.075Z,35.90
2022-12-03T08:53:52.529Z,28.60
2022-12-03T08:56:30.649Z,42.17
2022-12-03T08:59:28.193Z,43.88
2022-12-03T09:01:56.795Z,40.83
2022-12-03T09:04:39.205Z,37.33
2022-12-03T09:07:06.064Z,40.75
2022-12-03T09:09:34.509Z,28.73
2022-12-03T09:12:04.773Z,40.22
2022-12-03T09:14:31.551Z,28.63
2022-12-03T09:16:58.375Z,33.85
2022-12-03T09:19:27.867Z,32.15
2022-12-03T09:21:55.160Z,33.25
2022-12-03T09:24:22.757Z,39.38
2022-12-03T09:26:50.096Z,39.88
2022-12-03T09:29:16.901Z,39.53
2022-12-03T09:31:43.729Z,37.10
2022-12-03T09:34:11.204Z,36.28
2022-12-03T09:36:38.147Z,31.15
2022-12-03T09:39:05.332Z,45.95
2022-12-03T09:41:32.181Z,44.40
2022-12-03T09:44:08.609Z,28.45
2022-12-03T09:49:15.488Z,34.95
2022-12-03T09:51:45.487Z,39.80
2022-12-03T09:54:24.388Z,36.80
2022-12-03T09:59:21.966Z,29.17
2022-12-03T10:01:49.058Z,50.08
2022-12-03T10:04:16.026Z,51.22
2022-12-03T10:06:46.121Z,45.10
2022-12-03T10:09:21.778Z,46.42
2022-12-03T10:11:48.610Z,42.90
2022-12-03T10:14:19.637Z,34.08
2022-12-03T10:16:47.373Z,44.17
2022-12-03T10:19:31.515Z,37.67
2022-12-03T10:21:59.659Z,44.65
2022-12-03T10:24:28.987Z,38.30
2022-12-03T10:27:04.484Z,34.35
2022-12-03T10:29:35.837Z,36.00
2022-12-03T10:32:09.380Z,41.95
2022-12-03T10:34:40.384Z,23.83
2022-12-03T10:37:15.776Z,25.23
2022-12-03T10:39:59.356Z,32.60
2022-12-03T10:42:32.976Z,20.98
2022-12-03T10:45:22.668Z,29.08
2022-12-03T10:48:11.899Z,28.83
2022-12-03T10:50:48.747Z,30.73
2022-12-03T10:53:16.329Z,21.13
2022-12-03T10:55:45.724Z,23.95
2022-12-03T10:58:21.950Z,31.25
2022-12-03T11:00:53.063Z,23.55
2022-12-03T11:03:27.916Z,32.95
2022-12-03T11:05:57.433Z,21.83
2022-12-03T11:08:29.088Z,27.23
2022-12-03T11:11:00.728Z,22.95
2022-12-03T11:13:53.462Z,25.50
2022-12-03T11:16:41.941Z,31.77
2022-12-03T11:19:43.908Z,30.38
2022-12-03T11:22:10.628Z,30.98
2022-12-03T11:24:40.339Z,22.92
2022-12-03T11:27:11.689Z,31.92
2022-12-03T11:29:44.794Z,16.05
2022-12-03T11:32:11.635Z,30.00
2022-12-03T11:34:38.241Z,35.78
2022-12-03T11:37:11.228Z,36.08
2022-12-03T11:39:55.588Z,18.85
2022-12-03T11:42:28.064Z,26.17
2022-12-03T11:45:08.347Z,32.65
2022-12-03T11:47:44.163Z,27.70
2022-12-03T11:50:36.104Z,31.90
2022-12-03T11:53:25.466Z,34.30
2022-12-03T11:56:10.852Z,32.97
2022-12-03T11:58:42.335Z,35.65
2022-12-03T12:01:09.568Z,30.60
2022-12-03T12:03:50.696Z,19.60
2022-12-03T12:06:21.812Z,34.53
2022-12-03T12:08:51.012Z,25.80
2022-12-03T12:11:25.672Z,23.45
2022-12-03T12:14:11.315Z,23.52
2022-12-03T12:16:51.707Z,32.40
2022-12-03T12:19:43.900Z,22.17
2022-12-03T12:22:19.489Z,34.45
2022-12-03T12:24:51.728Z,27.45
2022-12-03T12:27:30.346Z,23.40
2022-12-03T12:30:01.440Z,28.42
2022-12-03T12:32:46.667Z,24.77
2022-12-03T12:38:00.244Z,31.42
2022-12-03T12:40:32.254Z,19.95
2022-12-03T12:43:13.499Z,27.75
2022-12-03T12:45:43.604Z,26.30
2022-12-03T12:48:10.287Z,31.88
2022-12-03T12:50:38.463Z,31.38
2022-12-03T12:53:11.232Z,33.08
2022-12-03T12:55:39.798Z,30.45
2022-12-03T12:58:15.599Z,34.10
2022-12-03T13:00:45.302Z,34.90
2022-12-03T13:03:16.752Z,33.70
2022-12-03T13:05:48.135Z,20.80
2022-12-03T13:08:26.159Z,22.55
2022-12-03T13:11:01.923Z,26.63
2022-12-03T13:13:44.186Z,31.65
2022-12-03T13:16:30.528Z,28.13
2022-12-03T13:18:59.749Z,31.70
2022-12-03T13:21:44.825Z,35.83
2022-12-03T13:24:40.731Z,36.80
2022-12-03T13:27:16.160Z,39.33
2022-12-03T13:29:44.792Z,39.67
2022-12-03T13:32:19.924Z,33.85
2022-12-03T13:34:50.396Z,20.15
2022-12-03T13:37:26.880Z,33.53
2022-12-03T13:39:57.430Z,32.80
2022-12-03T13:42:39.132Z,36.17
2022-12-03T13:45:14.902Z,39.47
2022-12-03T13:47:47.902Z,34.10
2022-12-03T13:50:35.475Z,42.70
2022-12-03T13:53:38.267Z,45.63
2022-12-03T13:58:59.673Z,24.08
2022-12-03T14:01:30.091Z,40.70
2022-12-03T14:03:57.295Z,41.88
2022-12-03T14:06:24.069Z,35.65
2022-12-03T14:08:51.487Z,34.58
2022-12-03T14:11:36.726Z,37.80
2022-12-03T14:14:03.521Z,42.20
2022-12-03T14:16:30.287Z,40.40
2022-12-03T14:18:57.025Z,41.78
2022-12-03T14:21:23.768Z,33.70
2022-12-03T14:23:50.538Z,29.85
2022-12-03T14:26:17.385Z,41.25
2022-12-03T14:28:44.136Z,30.17
2022-12-03T14:31:10.904Z,33.22
2022-12-03T14:33:37.739Z,39.13
2022-12-03T14:36:04.849Z,34.95
2022-12-03T14:38:31.721Z,35.83
2022-12-03T14:40:58.446Z,39.28
2022-12-03T14:43:25.133Z,47.55
2022-12-03T14:45:51.889Z,45.72
2022-12-03T14:48:20.879Z,41.90
2022-12-03T14:50:47.631Z,28.55
2022-12-03T14:53:14.350Z,47.15
2022-12-03T14:55:41.065Z,38.92
2022-12-03T14:58:07.799Z,43.30
2022-12-03T15:00:34.551Z,36.85
2022-12-03T15:03:01.400Z,35.25
2022-12-03T15:05:28.992Z,39.58
2022-12-03T15:07:56.326Z,41.38
2022-12-03T15:10:23.201Z,45.95
2022-12-03T15:12:49.965Z,44.75
2022-12-03T15:15:16.746Z,42.97
2022-12-03T15:17:45.674Z,50.28
2022-12-03T15:20:13.137Z,31.23
2022-12-03T15:22:39.956Z,42.33
2022-12-03T15:25:08.026Z,42.22
2022-12-03T15:27:34.839Z,45.35
2022-12-03T15:30:01.780Z,38.78
2022-12-03T15:32:28.564Z,47.63
2022-12-03T15:34:55.481Z,41.30
2022-12-03T15:37:22.286Z,47.20
2022-12-03T15:39:49.168Z,54.40
2022-12-03T15:42:16.061Z,41.92
2022-12-03T15:44:42.761Z,44.38
2022-12-03T15:47:09.524Z,44.38
2022-12-03T15:49:36.336Z,37.22
2022-12-03T15:52:03.214Z,38.22
2022-12-03T15:54:30.088Z,31.08
2022-12-03T15:56:57.828Z,30.45
2022-12-03T15:59:25.228Z,37.03
2022-12-03T16:01:52.070Z,41.75
2022-12-03T16:04:18.857Z,52.15
2022-12-03T16:06:45.638Z,47.33
2022-12-03T16:09:12.357Z,33.25
2022-12-03T16:11:39.112Z,42.40
2022-12-03T16:14:06.027Z,44.80
2022-12-03T16:16:32.789Z,47.60
2022-12-03T16:18:59.590Z,32.55
2022-12-03T16:21:27.211Z,30.42
2022-12-03T16:23:55.744Z,34.15
2022-12-03T16:26:23.304Z,41.38
2022-12-03T16:28:50.134Z,32.80
2022-12-03T16:31:18.947Z,31.00
2022-12-03T16:33:45.856Z,40.90
2022-12-03T16:36:12.661Z,37.20
2022-12-03T16:38:39.531Z,31.88
2022-12-03T16:41:06.372Z,30.85
2022-12-03T16:43:35.751Z,42.00
2022-12-03T16:46:09.956Z,37.92
2022-12-03T16:48:36.807Z,37.95
2022-12-03T16:51:03.671Z,31.55
2022-12-03T16:53:30.508Z,27.48
2022-12-03T16:55:57.333Z,37.22
2022-12-03T16:58:24.580Z,41.78
2022-12-03T17:00:53.342Z,45.90
2022-12-03T17:03:21.463Z,46.75
2022-12-03T17:05:49.438Z,33.55
2022-12-03T17:08:16.836Z,48.63
2022-12-03T17:10:44.686Z,38.85
2022-12-03T17:13:12.101Z,35.53
2022-12-03T17:15:39.692Z,47.20
2022-12-03T17:18:08.125Z,46.72
2022-12-03T17:20:36.415Z,44.80
2022-12-03T17:23:03.982Z,37.13
2022-12-03T17:25:30.935Z,38.75
2022-12-03T17:27:57.636Z,35.85
2022-12-03T17:30:24.434Z,42.30
2022-12-03T17:32:51.183Z,46.13
2022-12-03T17:35:19.077Z,28.55
2022-12-03T17:37:45.979Z,30.58
2022-12-03T17:40:16.928Z,44.50
2022-12-03T17:42:43.715Z,47.45
2022-12-03T17:45:11.405Z,42.03
2022-12-03T17:47:38.519Z,30.60
2022-12-03T17:50:07.718Z,36.60
2022-12-03T17:52:34.535Z,49.40
2022-12-03T17:55:26.503Z,46.10
2022-12-03T17:57:47.995Z,42.17
2022-12-03T18:00:14.994Z,54.88
2022-12-03T18:02:42.299Z,36.63
2022-12-03T18:05:10.037Z,51.20
2022-12-03T18:07:36.860Z,44.70
2022-12-03T18:10:04.949Z,43.33
2022-12-03T18:12:31.714Z,56.05
2022-12-03T18:14:58.498Z,52.20
2022-12-03T18:17:25.302Z,39.92
2022-12-03T18:19:52.422Z,35.53
2022-12-03T18:22:19.572Z,60.20
2022-12-03T18:24:50.273Z,39.60
2022-12-03T18:27:19.730Z,43.65
2022-12-03T18:29:46.474Z,38.22
2022-12-03T18:32:27.528Z,38.85
2022-12-03T18:34:55.463Z,54.80
2022-12-03T18:37:28.490Z,63.95
2022-12-03T18:39:57.877Z,58.20
2022-12-03T18:42:25.502Z,63.58
2022-12-03T18:44:55.607Z,60.95
2022-12-03T18:47:26.774Z,62.63
2022-12-03T18:49:55.126Z,48.83
2022-12-03T18:52:24.895Z,57.70
2022-12-03T18:54:51.755Z,67.78
2022-12-03T18:57:18.620Z,57.83
2022-12-03T18:59:45.418Z,54.28
2022-12-03T19:02:54.365Z,58.17
2022-12-03T19:05:11.017Z,45.50
2022-12-03T19:07:38.084Z,56.70
2022-12-03T19:10:06.066Z,49.28
2022-12-03T19:12:33.404Z,58.05
2022-12-03T19:15:00.194Z,47.65
2022-12-03T19:17:27.560Z,65.80
2022-12-03T19:19:55.241Z,62.03
2022-12-03T19:22:23.199Z,40.40
2022-12-03T19:24:50.789Z,62.17
2022-12-03T19:27:17.854Z,46.35
2022-12-03T19:29:48.208Z,57.53
2022-12-03T19:32:14.908Z,37.85
2022-12-03T19:34:41.664Z,65.75
2022-12-03T19:37:08.387Z,69.22
2022-12-03T19:39:35.148Z,62.70
2022-12-03T19:42:01.880Z,56.08
2022-12-03T19:44:28.828Z,53.08
2022-12-03T19:46:57.050Z,58.45
2022-12-03T19:49:24.583Z,56.35
2022-12-03T19:51:51.346Z,58.38
2022-12-03T19:54:18.213Z,61.35
2022-12-03T19:56:45.148Z,55.15
2022-12-03T19:59:14.075Z,57.30
2022-12-03T20:01:42.954Z,62.00
2022-12-03T20:04:12.107Z,65.35
2022-12-03T20:06:39.994Z,62.78
2022-12-03T20:09:17.212Z,48.53
2022-12-03T20:11:45.835Z,57.45
2022-12-03T20:14:17.349Z,61.50
2022-12-03T20:16:45.867Z,61.00
2022-12-03T20:19:16.043Z,37.22
2022-12-03T20:21:43.712Z,59.50
2022-12-03T20:24:15.634Z,62.42
2022-12-03T20:26:43.278Z,44.92
2022-12-03T20:29:10.040Z,64.75
2022-12-03T20:31:36.888Z,66.50
2022-12-03T20:34:04.679Z,64.75
2022-12-03T20:36:32.688Z,66.85
2022-12-03T20:39:04.504Z,65.60
2022-12-03T20:41:34.057Z,72.70
2022-12-03T20:44:00.831Z,55.80
2022-12-03T20:46:31.163Z,42.40
2022-12-03T20:48:59.442Z,47.88
2022-12-03T20:51:30.070Z,59.92
2022-12-03T20:53:59.382Z,56.20
2022-12-03T20:56:39.467Z,64.38
2022-12-03T20:59:11.556Z,52.47
2022-12-03T21:01:40.027Z,53.70
2022-12-03T21:04:08.775Z,72.57
2022-12-03T21:06:37.547Z,42.00
2022-12-03T21:09:09.408Z,56.45
2022-12-03T21:11:39.033Z,65.90
2022-12-03T21:14:06.352Z,66.05
2022-12-03T21:17:07.344Z,65.88
2022-12-03T21:19:26.343Z,51.53
2022-12-03T21:21:53.125Z,50.63
2022-12-03T21:24:20.120Z,52.00
2022-12-03T21:26:46.848Z,64.30
2022-12-03T21:29:13.595Z,54.58
2022-12-03T21:31:40.439Z,78.68
2022-12-03T21:34:08.557Z,58.20
2022-12-03T21:36:35.663Z,67.50
2022-12-03T21:39:02.476Z,48.15
2022-12-03T21:41:29.278Z,71.22
2022-12-03T21:43:56.020Z,58.55
2022-12-03T21:47:09.264Z,61.78
2022-12-03T21:49:09.472Z,66.07
2022-12-03T21:51:36.408Z,55.00
2022-12-03T21:54:03.282Z,39.72
2022-12-03T21:56:31.823Z,67.72
2022-12-03T21:58:58.676Z,66.88
2022-12-03T22:01:25.751Z,72.45
2022-12-03T22:03:52.776Z,62.80
2022-12-03T22:06:20.513Z,54.03
2022-12-03T22:08:50.194Z,68.15
2022-12-03T22:11:23.269Z,41.08
2022-12-03T22:13:50.511Z,49.10
2022-12-03T22:16:21.058Z,59.35
2022-12-03T22:18:48.951Z,52.00
2022-12-03T22:21:19.765Z,38.35
2022-12-03T22:23:46.612Z,66.15
2022-12-03T22:26:17.777Z,67.47
2022-12-03T22:28:50.009Z,63.80
2022-12-03T22:31:18.513Z,59.00
2022-12-03T22:33:48.406Z,70.05
2022-12-03T22:36:21.401Z,66.03
2022-12-03T22:38:50.747Z,62.25
2022-12-03T22:41:19.144Z,50.53
2022-12-03T22:43:47.664Z,71.03
2022-12-03T22:46:15.560Z,68.53
2022-12-03T22:48:44.576Z,71.68
2022-12-03T22:51:19.967Z,57.28
2022-12-03T22:53:47.980Z,75.90
2022-12-03T22:56:14.857Z,54.70
2022-12-03T22:58:41.712Z,58.80
2022-12-03T23:01:08.879Z,59.95
2022-12-03T23:03:37.001Z,61.05
2022-12-03T23:06:10.973Z,57.75
2022-12-03T23:08:38.076Z,49.60
2022-12-03T23:11:05.371Z,64.22
2022-12-03T23:13:32.103Z,63.28
2022-12-03T23:15:58.922Z,71.30
2022-12-03T23:18:25.751Z,68.20
2022-12-03T23:20:55.995Z,46.13
2022-12-03T23:23:27.535Z,51.40
2022-12-03T23:26:02.950Z,58.45
2022-12-03T23:28:32.321Z,69.57
2022-12-03T23:30:59.587Z,49.58
2022-12-03T23:33:26.624Z,57.42
2022-12-03T23:35:53.433Z,61.20
2022-12-03T23:38:20.698Z,57.85
2022-12-03T23:40:48.492Z,47.33
2022-12-03T23:43:16.284Z,58.03
2022-12-03T23:45:43.036Z,65.97
2022-12-03T23:48:10.129Z,57.85
2022-12-03T23:50:40.214Z,71.55
2022-12-03T23:53:07.214Z,59.10
2022-12-03T23:55:34.003Z,54.38
2022-12-03T23:58:00.726Z,54.95
